Time;durP1;ratioP1;P1;durP2;ratioP2;P2;SDS_P1;SDS_P2;PMS_P1;PMS_P2;Temp;Humidity;BMP_temperature;BMP_pressure;BME280_temperature;BME280_humidity;BME280_pressure;Samples;Min_cycle;Max_cycle;Signal;HPM_P1;HPM_P2
2022/07/20 00:00:50;;;;;;;10.30;6.00;;;;;;;;;;5028339;28;20417;-75
2022/07/20 00:03:16;;;;;;;6.18;5.50;;;;;;;;;;5026882;28;20037;-75
2022/07/20 00:05:43;;;;;;;8.85;6.28;;;;;;;;;;5028058;28;20037;-75
2022/07/20 00:08:09;;;;;;;10.30;7.03;;;;;;;;;;5026632;28;20033;-75
2022/07/20 00:13:20;;;;;;;7.75;5.80;;;;;;;;;;5022918;28;20065;-75
2022/07/20 00:15:46;;;;;;;8.75;6.50;;;;;;;;;;5027881;28;20061;-75
2022/07/20 00:18:12;;;;;;;9.25;5.88;;;;;;;;;;5026600;28;20033;-75
2022/07/20 00:20:38;;;;;;;8.43;5.90;;;;;;;;;;5010047;28;20495;-75
2022/07/20 00:23:05;;;;;;;9.98;6.00;;;;;;;;;;5026784;28;20444;-75
2022/07/20 00:25:31;;;;;;;9.30;6.10;;;;;;;;;;5005324;28;20091;-75
2022/07/20 00:27:57;;;;;;;7.82;5.82;;;;;;;;;;5027423;28;20471;-75
2022/07/20 00:30:23;;;;;;;8.85;5.72;;;;;;;;;;5026921;28;20033;-75
2022/07/20 00:32:50;;;;;;;10.52;6.07;;;;;;;;;;5027529;28;20044;-75
2022/07/20 00:35:16;;;;;;;8.75;6.97;;;;;;;;;;5026883;28;20056;-75
2022/07/20 00:37:43;;;;;;;10.70;6.50;;;;;;;;;;5027538;28;20537;-75
2022/07/20 00:40:10;;;;;;;11.75;6.78;;;;;;;;;;5018959;28;20435;-75
2022/07/20 00:42:36;;;;;;;12.77;7.07;;;;;;;;;;5027344;28;20136;-75
2022/07/20 00:45:03;;;;;;;10.85;7.05;;;;;;;;;;5025507;28;20486;-75
2022/07/20 00:47:29;;;;;;;10.65;6.72;;;;;;;;;;5027666;28;20069;-75
2022/07/20 00:49:56;;;;;;;9.52;7.88;;;;;;;;;;5025255;28;20488;-75
2022/07/20 00:52:23;;;;;;;10.32;7.60;;;;;;;;;;5026921;28;20038;-75
2022/07/20 00:54:49;;;;;;;16.13;6.90;;;;;;;;;;5026139;28;20048;-75
2022/07/20 00:57:16;;;;;;;15.05;7.25;;;;;;;;;;5027326;28;20510;-75
2022/07/20 00:59:42;;;;;;;8.85;6.90;;;;;;;;;;5026867;28;20285;-75
2022/07/20 01:02:08;;;;;;;9.18;6.65;;;;;;;;;;5027102;28;20104;-75
2022/07/20 01:04:34;;;;;;;9.77;7.55;;;;;;;;;;5008633;28;20049;-75
2022/07/20 01:07:01;;;;;;;14.88;7.00;;;;;;;;;;5026958;28;20031;-75
2022/07/20 01:09:27;;;;;;;10.82;7.25;;;;;;;;;;5008022;28;20041;-75
2022/07/20 01:11:53;;;;;;;11.80;6.90;;;;;;;;;;5027264;28;20033;-75
2022/07/20 01:14:19;;;;;;;9.90;6.93;;;;;;;;;;5027005;28;20038;-75
2022/07/20 01:16:45;;;;;;;10.98;7.95;;;;;;;;;;5035106;28;20033;-75
2022/07/20 01:19:11;;;;;;;10.30;7.40;;;;;;;;;;5038485;28;20403;-75
2022/07/20 01:21:41;;;;;;;15.18;7.47;;;;;;;;;;5034945;28;20125;-75
2022/07/20 01:24:09;;;;;;;12.85;7.70;;;;;;;;;;5037683;28;20045;-75
2022/07/20 01:26:36;;;;;;;12.20;7.40;;;;;;;;;;5033926;28;20545;-75
2022/07/20 01:29:02;;;;;;;10.82;8.40;;;;;;;;;;5016451;28;20595;-74
2022/07/20 01:31:28;;;;;;;11.43;7.97;;;;;;;;;;5036777;28;20052;-75
2022/07/20 01:33:54;;;;;;;12.18;7.43;;;;;;;;;;5034769;28;20037;-75
2022/07/20 01:36:20;;;;;;;12.65;7.45;;;;;;;;;;5036731;28;20064;-75
2022/07/20 01:38:46;;;;;;;13.95;6.95;;;;;;;;;;5034991;28;20111;-75
2022/07/20 01:41:12;;;;;;;10.45;7.72;;;;;;;;;;5041306;28;20029;-75
2022/07/20 01:43:38;;;;;;;11.25;7.15;;;;;;;;;;5034754;28;20045;-75
2022/07/20 01:46:04;;;;;;;9.93;7.80;;;;;;;;;;5034999;28;20072;-75
2022/07/20 01:48:30;;;;;;;19.35;7.78;;;;;;;;;;5034228;28;20548;-74
2022/07/20 01:50:56;;;;;;;8.88;7.18;;;;;;;;;;5041623;28;20034;-75
2022/07/20 01:53:22;;;;;;;9.98;7.00;;;;;;;;;;5020354;28;20035;-75
2022/07/20 01:55:48;;;;;;;8.88;6.55;;;;;;;;;;5033697;28;20041;-75
2022/07/20 01:58:14;;;;;;;9.95;6.53;;;;;;;;;;5036947;28;20445;-75
2022/07/20 02:00:40;;;;;;;12.52;7.38;;;;;;;;;;5036597;28;20041;-75
2022/07/20 02:03:06;;;;;;;10.02;7.15;;;;;;;;;;5016053;28;20068;-75
2022/07/20 02:05:32;;;;;;;10.10;7.18;;;;;;;;;;5036815;28;20135;-75
2022/07/20 02:07:58;;;;;;;11.93;8.02;;;;;;;;;;5033766;28;20052;-75
2022/07/20 02:10:24;;;;;;;11.18;7.35;;;;;;;;;;5035205;28;20052;-75
2022/07/20 02:12:50;;;;;;;8.82;6.78;;;;;;;;;;5035262;28;20060;-74
2022/07/20 02:18:08;;;;;;;10.35;7.80;;;;;;;;;;5025904;28;20100;-75
2022/07/20 02:20:34;;;;;;;11.80;7.28;;;;;;;;;;5025894;28;20853;-75
2022/07/20 02:23:01;;;;;;;10.40;7.13;;;;;;;;;;5007295;28;20038;-75
2022/07/20 02:25:27;;;;;;;13.23;6.80;;;;;;;;;;5025605;28;20056;-75
2022/07/20 02:27:53;;;;;;;8.68;7.15;;;;;;;;;;5021950;28;20034;-75
2022/07/20 02:30:19;;;;;;;11.48;7.07;;;;;;;;;;5025891;28;20707;-75
2022/07/20 02:32:45;;;;;;;9.82;7.30;;;;;;;;;;5026351;28;20038;-75
2022/07/20 02:35:11;;;;;;;11.10;6.97;;;;;;;;;;5029258;28;20028;-75
2022/07/20 02:37:37;;;;;;;7.38;6.30;;;;;;;;;;5025091;28;20033;-75
2022/07/20 02:40:04;;;;;;;6.95;6.22;;;;;;;;;;5029561;28;20404;-75
2022/07/20 02:42:30;;;;;;;9.90;7.80;;;;;;;;;;5028888;28;20044;-75
2022/07/20 02:44:56;;;;;;;8.45;6.85;;;;;;;;;;5030091;28;20037;-75
2022/07/20 02:47:22;;;;;;;10.95;7.20;;;;;;;;;;5028335;28;20032;-75
2022/07/20 02:49:48;;;;;;;10.07;7.30;;;;;;;;;;5023206;28;20041;-75
2022/07/20 02:52:14;;;;;;;9.35;6.60;;;;;;;;;;5028455;28;20087;-75
2022/07/20 02:54:40;;;;;;;10.52;7.35;;;;;;;;;;5029091;28;20787;-75
2022/07/20 02:57:06;;;;;;;9.05;6.50;;;;;;;;;;5028421;28;20048;-75
2022/07/20 02:59:32;;;;;;;10.38;6.63;;;;;;;;;;5028157;28;20879;-75
2022/07/20 03:01:58;;;;;;;11.90;7.22;;;;;;;;;;5029219;28;20033;-75
2022/07/20 03:04:24;;;;;;;12.02;7.45;;;;;;;;;;5028207;28;20083;-75
2022/07/20 03:06:50;;;;;;;8.18;6.53;;;;;;;;;;5029110;28;20810;-75
2022/07/20 03:09:16;;;;;;;10.88;7.32;;;;;;;;;;5028325;28;20038;-75
2022/07/20 03:11:42;;;;;;;8.48;6.95;;;;;;;;;;5011400;28;20040;-75
2022/07/20 03:14:08;;;;;;;10.30;7.47;;;;;;;;;;5025089;28;20064;-75
2022/07/20 03:16:34;;;;;;;10.02;7.10;;;;;;;;;;5028645;28;20484;-75
2022/07/20 03:19:00;;;;;;;8.35;7.43;;;;;;;;;;5010227;28;20048;-75
2022/07/20 03:21:26;;;;;;;11.15;7.13;;;;;;;;;;5029121;28;20060;-75
2022/07/20 03:23:53;;;;;;;10.88;7.60;;;;;;;;;;5028192;28;20734;-75
2022/07/20 03:26:21;;;;;;;12.00;7.68;;;;;;;;;;5028835;28;20548;-75
2022/07/20 03:28:47;;;;;;;9.68;7.80;;;;;;;;;;5026478;28;20033;-75
2022/07/20 03:31:14;;;;;;;11.82;7.22;;;;;;;;;;5026512;28;20496;-75
2022/07/20 03:33:39;;;;;;;10.25;7.60;;;;;;;;;;5028330;28;20056;-75
2022/07/20 03:36:06;;;;;;;11.73;7.82;;;;;;;;;;5028459;28;20041;-75
2022/07/20 03:38:32;;;;;;;9.25;7.22;;;;;;;;;;5028766;28;20144;-75
2022/07/20 03:40:58;;;;;;;9.13;7.43;;;;;;;;;;5028542;28;20044;-75
2022/07/20 03:43:25;;;;;;;11.52;7.80;;;;;;;;;;5028055;28;20820;-75
2022/07/20 03:45:52;;;;;;;8.85;7.22;;;;;;;;;;5023789;28;20782;-75
2022/07/20 03:48:18;;;;;;;14.52;7.78;;;;;;;;;;5028721;28;20030;-75
2022/07/20 03:50:45;;;;;;;10.50;8.23;;;;;;;;;;5025122;28;20036;-75
2022/07/20 03:53:11;;;;;;;13.77;9.00;;;;;;;;;;5029015;28;20038;-75
2022/07/20 03:55:37;;;;;;;14.20;8.70;;;;;;;;;;5027775;28;20030;-75
2022/07/20 03:58:03;;;;;;;18.02;8.07;;;;;;;;;;5028765;28;20108;-75
2022/07/20 04:00:29;;;;;;;13.25;7.43;;;;;;;;;;5027056;28;20140;-75
2022/07/20 04:02:55;;;;;;;9.73;7.95;;;;;;;;;;5028809;28;20046;-75
2022/07/20 04:05:21;;;;;;;10.82;7.72;;;;;;;;;;5025961;28;20049;-75
2022/07/20 04:07:47;;;;;;;14.90;8.02;;;;;;;;;;5028277;28;20841;-75
2022/07/20 04:10:13;;;;;;;10.25;8.45;;;;;;;;;;5026745;28;20414;-74
2022/07/20 04:12:40;;;;;;;11.20;8.23;;;;;;;;;;5028479;28;20030;-75
2022/07/20 04:15:06;;;;;;;12.70;8.80;;;;;;;;;;5032472;28;20147;-75
2022/07/20 04:17:32;;;;;;;9.65;8.05;;;;;;;;;;5037781;28;20116;-75
2022/07/20 04:19:58;;;;;;;9.45;7.50;;;;;;;;;;5036494;28;20748;-75
2022/07/20 04:22:24;;;;;;;8.60;7.72;;;;;;;;;;5017732;28;20143;-75
2022/07/20 04:24:50;;;;;;;10.70;7.85;;;;;;;;;;5038425;28;20036;-75
2022/07/20 04:27:16;;;;;;;11.13;8.40;;;;;;;;;;5040826;28;20040;-75
2022/07/20 04:29:42;;;;;;;17.52;8.57;;;;;;;;;;5018833;28;20148;-75
2022/07/20 04:32:09;;;;;;;14.25;7.60;;;;;;;;;;5041084;28;20033;-75
2022/07/20 04:34:35;;;;;;;9.63;7.78;;;;;;;;;;5041551;28;20033;-75
2022/07/20 04:37:01;;;;;;;9.90;7.65;;;;;;;;;;5040476;28;20037;-75
2022/07/20 04:39:27;;;;;;;17.92;8.25;;;;;;;;;;5039660;28;20146;-75
2022/07/20 04:41:53;;;;;;;9.90;7.53;;;;;;;;;;5038243;28;20108;-75
2022/07/20 04:44:19;;;;;;;9.98;8.80;;;;;;;;;;5038003;28;20044;-75
2022/07/20 04:46:45;;;;;;;10.30;8.75;;;;;;;;;;5037241;28;20045;-75
2022/07/20 04:49:11;;;;;;;12.77;8.80;;;;;;;;;;5040668;28;20029;-75
2022/07/20 04:51:37;;;;;;;11.13;9.10;;;;;;;;;;5038405;28;20021;-74
2022/07/20 04:54:04;;;;;;;11.57;8.70;;;;;;;;;;5038219;28;20052;-75
2022/07/20 04:56:30;;;;;;;15.00;8.52;;;;;;;;;;5033954;28;20044;-75
2022/07/20 04:58:56;;;;;;;11.00;8.38;;;;;;;;;;5040337;28;20052;-75
2022/07/20 05:01:22;;;;;;;10.73;8.70;;;;;;;;;;5038696;28;20505;-75
2022/07/20 05:03:49;;;;;;;9.55;8.55;;;;;;;;;;5017932;28;20038;-75
2022/07/20 05:06:15;;;;;;;10.05;7.70;;;;;;;;;;5039481;28;20048;-75
2022/07/20 05:08:41;;;;;;;11.15;8.30;;;;;;;;;;5046058;28;20115;-74
2022/07/20 05:11:07;;;;;;;13.13;8.70;;;;;;;;;;5038361;28;20099;-75
2022/07/20 05:13:33;;;;;;;11.95;8.73;;;;;;;;;;5037697;28;20078;-75
2022/07/20 05:15:59;;;;;;;15.95;9.75;;;;;;;;;;5038588;28;20053;-75
2022/07/20 05:18:26;;;;;;;12.23;8.60;;;;;;;;;;5038178;28;20061;-75
2022/07/20 05:20:52;;;;;;;16.13;7.80;;;;;;;;;;5032562;28;20040;-75
2022/07/20 05:23:18;;;;;;;13.90;7.63;;;;;;;;;;5041468;28;20029;-75
2022/07/20 05:25:44;;;;;;;12.48;8.00;;;;;;;;;;5045206;28;20452;-75
2022/07/20 05:28:11;;;;;;;14.90;8.00;;;;;;;;;;5042268;28;20062;-75
2022/07/20 05:30:37;;;;;;;11.10;7.63;;;;;;;;;;5042761;28;20025;-75
2022/07/20 05:33:03;;;;;;;11.65;7.38;;;;;;;;;;5020407;28;20037;-75
2022/07/20 05:35:29;;;;;;;11.38;7.32;;;;;;;;;;5022862;28;20037;-75
2022/07/20 05:37:55;;;;;;;10.18;7.07;;;;;;;;;;5035388;28;20076;-75
2022/07/20 05:40:21;;;;;;;12.55;8.82;;;;;;;;;;5035009;28;20040;-74
2022/07/20 05:42:47;;;;;;;13.80;7.97;;;;;;;;;;5043644;28;20025;-75
2022/07/20 05:45:13;;;;;;;13.75;8.32;;;;;;;;;;5019580;28;20068;-74
2022/07/20 05:47:39;;;;;;;14.73;8.70;;;;;;;;;;5023995;28;20044;-75
2022/07/20 05:50:06;;;;;;;15.27;9.02;;;;;;;;;;5036367;28;20063;-75
2022/07/20 05:52:32;;;;;;;14.18;8.48;;;;;;;;;;5017939;28;20060;-75
2022/07/20 05:54:58;;;;;;;10.45;8.07;;;;;;;;;;5035626;28;20071;-74
2022/07/20 05:57:24;;;;;;;11.95;8.93;;;;;;;;;;5039479;28;20718;-74
2022/07/20 05:59:50;;;;;;;15.70;9.23;;;;;;;;;;5038379;28;20067;-74
2022/07/20 06:02:16;;;;;;;15.75;9.05;;;;;;;;;;5038041;28;20033;-75
2022/07/20 06:04:42;;;;;;;15.40;9.10;;;;;;;;;;5034713;28;20748;-75
2022/07/20 06:07:08;;;;;;;17.42;9.25;;;;;;;;;;5038044;28;20037;-75
2022/07/20 06:09:34;;;;;;;15.70;8.75;;;;;;;;;;5040692;28;20032;-75
2022/07/20 06:12:00;;;;;;;20.55;8.10;;;;;;;;;;5039728;28;20025;-75
2022/07/20 06:14:26;;;;;;;12.95;7.68;;;;;;;;;;5043975;28;20707;-74
2022/07/20 06:16:52;;;;;;;14.60;6.95;;;;;;;;;;5036890;28;20032;-75
2022/07/20 06:19:18;;;;;;;16.75;7.32;;;;;;;;;;5038909;28;20049;-74
2022/07/20 06:21:44;;;;;;;14.57;7.30;;;;;;;;;;5051994;28;20540;-75
2022/07/20 06:24:10;;;;;;;12.23;6.88;;;;;;;;;;5039651;28;20045;-75
2022/07/20 06:26:36;;;;;;;15.50;6.72;;;;;;;;;;5043095;28;20040;-75
2022/07/20 06:29:03;;;;;;;14.75;6.10;;;;;;;;;;5043466;28;20040;-74
2022/07/20 06:31:29;;;;;;;13.50;6.18;;;;;;;;;;5048944;28;20415;-75
2022/07/20 06:33:55;;;;;;;9.57;6.72;;;;;;;;;;5044513;28;20029;-74
2022/07/20 06:36:21;;;;;;;9.82;6.82;;;;;;;;;;5046282;28;20029;-74
2022/07/20 06:38:47;;;;;;;16.70;6.97;;;;;;;;;;5042864;28;20495;-74
2022/07/20 06:41:13;;;;;;;11.55;7.07;;;;;;;;;;5041845;28;20032;-75
2022/07/20 06:43:39;;;;;;;12.02;6.38;;;;;;;;;;5026832;28;20033;-74
2022/07/20 06:46:05;;;;;;;23.92;7.78;;;;;;;;;;5041155;28;20038;-74
2022/07/20 06:48:33;;;;;;;19.48;6.88;;;;;;;;;;5044416;28;20136;-75
2022/07/20 06:50:59;;;;;;;13.35;7.05;;;;;;;;;;5043829;28;20460;-75
2022/07/20 06:53:25;;;;;;;11.52;7.15;;;;;;;;;;5037870;28;20037;-75
2022/07/20 06:55:51;;;;;;;13.77;7.93;;;;;;;;;;5040260;28;20032;-75
2022/07/20 06:58:17;;;;;;;13.38;7.93;;;;;;;;;;5046985;28;20029;-75
2022/07/20 07:00:43;;;;;;;13.10;7.25;;;;;;;;;;5048501;28;20087;-75
2022/07/20 07:03:09;;;;;;;9.50;6.50;;;;;;;;;;5049375;28;20043;-75
2022/07/20 07:05:35;;;;;;;8.00;6.00;;;;;;;;;;5039012;28;20369;-75
2022/07/20 07:08:01;;;;;;;14.00;5.93;;;;;;;;;;5049023;28;20510;-75
2022/07/20 07:10:27;;;;;;;8.70;6.05;;;;;;;;;;5042835;28;20503;-75
2022/07/20 07:12:53;;;;;;;11.23;6.90;;;;;;;;;;5045589;28;20444;-75
2022/07/20 07:15:19;;;;;;;11.45;6.90;;;;;;;;;;5037206;28;20045;-75
2022/07/20 07:17:45;;;;;;;8.90;7.05;;;;;;;;;;5045073;28;20091;-75
2022/07/20 07:20:12;;;;;;;9.95;7.53;;;;;;;;;;5040164;28;20525;-75
2022/07/20 07:22:38;;;;;;;9.98;7.13;;;;;;;;;;5045848;28;20041;-75
2022/07/20 07:25:04;;;;;;;10.15;7.35;;;;;;;;;;5049330;28;20057;-75
2022/07/20 07:27:30;;;;;;;9.88;6.93;;;;;;;;;;5042601;28;20039;-75
2022/07/20 07:29:56;;;;;;;8.45;7.05;;;;;;;;;;5044412;28;20033;-75
2022/07/20 07:32:22;;;;;;;9.48;6.20;;;;;;;;;;5026463;28;20072;-74
2022/07/20 07:34:48;;;;;;;10.38;6.28;;;;;;;;;;5047211;28;20033;-75
2022/07/20 07:37:14;;;;;;;10.60;6.15;;;;;;;;;;5041872;28;20360;-75
2022/07/20 07:39:41;;;;;;;11.05;6.25;;;;;;;;;;5040767;28;20041;-75
2022/07/20 07:42:08;;;;;;;6.55;5.70;;;;;;;;;;5047023;28;20021;-75
2022/07/20 07:44:34;;;;;;;9.27;5.82;;;;;;;;;;5039998;28;20033;-75
2022/07/20 07:47:00;;;;;;;6.80;5.63;;;;;;;;;;5046802;28;20036;-75
2022/07/20 07:49:26;;;;;;;9.38;6.53;;;;;;;;;;5049956;28;20079;-75
2022/07/20 07:51:52;;;;;;;9.30;6.25;;;;;;;;;;5048956;28;20033;-75
2022/07/20 07:54:18;;;;;;;9.35;6.35;;;;;;;;;;5039219;28;20518;-75
2022/07/20 07:56:44;;;;;;;10.55;6.45;;;;;;;;;;5044387;28;20038;-75
2022/07/20 07:59:10;;;;;;;7.75;5.53;;;;;;;;;;5043806;28;20069;-75
2022/07/20 08:01:36;;;;;;;7.00;5.82;;;;;;;;;;5037168;28;20051;-75
2022/07/20 08:04:04;;;;;;;8.10;5.40;;;;;;;;;;5021726;28;20124;-75
2022/07/20 08:06:30;;;;;;;13.93;7.13;;;;;;;;;;5040963;28;20076;-75
2022/07/20 08:08:57;;;;;;;11.55;7.47;;;;;;;;;;5046313;28;20060;-75
2022/07/20 08:11:23;;;;;;;11.05;6.18;;;;;;;;;;5040870;28;20080;-75
2022/07/20 08:13:50;;;;;;;10.82;6.45;;;;;;;;;;5052350;28;20075;-75
2022/07/20 08:16:16;;;;;;;10.80;6.55;;;;;;;;;;5044608;28;20530;-75
2022/07/20 08:18:42;;;;;;;15.45;8.48;;;;;;;;;;5042184;28;20037;-75
2022/07/20 08:21:08;;;;;;;11.48;8.30;;;;;;;;;;5046473;28;20035;-75
2022/07/20 08:23:34;;;;;;;10.88;7.90;;;;;;;;;;5045339;28;20116;-75
2022/07/20 08:26:00;;;;;;;10.32;6.20;;;;;;;;;;5044391;28;20119;-75
2022/07/20 08:28:26;;;;;;;11.70;6.93;;;;;;;;;;5030477;28;20430;-75
2022/07/20 08:30:53;;;;;;;9.02;5.75;;;;;;;;;;5039687;28;20510;-75
2022/07/20 08:33:19;;;;;;;10.95;6.30;;;;;;;;;;5044757;28;20129;-75
2022/07/20 08:35:46;;;;;;;9.30;6.75;;;;;;;;;;5037729;28;20041;-75
2022/07/20 08:38:12;;;;;;;14.25;6.95;;;;;;;;;;5043295;28;20029;-75
2022/07/20 08:40:38;;;;;;;11.07;6.28;;;;;;;;;;5047963;28;20032;-75
2022/07/20 08:43:05;;;;;;;7.72;6.15;;;;;;;;;;5041070;28;20043;-75
2022/07/20 08:45:31;;;;;;;8.50;6.40;;;;;;;;;;5039246;28;20029;-74
2022/07/20 08:48:00;;;;;;;12.18;6.35;;;;;;;;;;5042630;28;20535;-75
2022/07/20 08:50:27;;;;;;;10.55;6.20;;;;;;;;;;5043154;28;20359;-75
2022/07/20 08:52:53;;;;;;;13.50;6.38;;;;;;;;;;5041073;28;20033;-75
2022/07/20 08:55:19;;;;;;;14.80;6.20;;;;;;;;;;5040806;28;20021;-75
2022/07/20 08:57:45;;;;;;;16.05;6.95;;;;;;;;;;5041141;28;20045;-75
2022/07/20 09:00:12;;;;;;;10.63;6.82;;;;;;;;;;5039063;28;20118;-75
2022/07/20 09:02:55;;;;;;;11.77;6.90;;;;;;;;;;5042199;28;20041;-75
2022/07/20 09:05:21;;;;;;;13.15;6.00;;;;;;;;;;5047903;28;20029;-75
2022/07/20 09:07:52;;;;;;;8.85;5.90;;;;;;;;;;5046181;28;20045;-75
2022/07/20 09:10:24;;;;;;;9.48;5.97;;;;;;;;;;5047590;28;20131;-75
2022/07/20 09:12:52;;;;;;;14.18;6.53;;;;;;;;;;5028136;28;20098;-75
2022/07/20 09:15:27;;;;;;;9.65;5.68;;;;;;;;;;5026261;28;20132;-75
2022/07/20 09:18:02;;;;;;;9.95;5.63;;;;;;;;;;5044850;28;20443;-75
2022/07/20 09:20:29;;;;;;;13.15;5.50;;;;;;;;;;5042129;28;20029;-75
2022/07/20 09:22:59;;;;;;;10.07;5.97;;;;;;;;;;5041662;28;20082;-75
2022/07/20 09:25:26;;;;;;;9.48;5.50;;;;;;;;;;5028408;28;20025;-75
2022/07/20 09:27:52;;;;;;;10.98;6.20;;;;;;;;;;5046819;28;20040;-75
2022/07/20 09:30:18;;;;;;;9.52;5.30;;;;;;;;;;5043187;28;20016;-75
2022/07/20 09:32:53;;;;;;;10.48;6.00;;;;;;;;;;5048072;28;20036;-75
2022/07/20 09:35:20;;;;;;;11.57;5.82;;;;;;;;;;5045149;28;20402;-75
2022/07/20 09:37:47;;;;;;;9.90;5.35;;;;;;;;;;5027628;28;20079;-75
2022/07/20 09:40:13;;;;;;;15.30;5.55;;;;;;;;;;5039253;28;20028;-75
2022/07/20 09:42:39;;;;;;;12.30;5.78;;;;;;;;;;5040720;28;20492;-75
2022/07/20 09:45:29;;;;;;;8.05;5.65;;;;;;;;;;5039499;28;20032;-75
2022/07/20 09:48:01;;;;;;;12.00;5.78;;;;;;;;;;5043810;28;20041;-75
2022/07/20 09:50:31;;;;;;;11.63;5.80;;;;;;;;;;5040267;28;20124;-75
2022/07/20 09:52:58;;;;;;;10.20;5.78;;;;;;;;;;5039252;28;20037;-75
2022/07/20 09:55:24;;;;;;;9.85;5.78;;;;;;;;;;5034795;28;20104;-77
2022/07/20 09:57:54;;;;;;;9.05;5.15;;;;;;;;;;5050721;28;20503;-75
2022/07/20 10:00:21;;;;;;;12.30;5.83;;;;;;;;;;5039340;28;20037;-75
2022/07/20 10:02:48;;;;;;;14.23;6.13;;;;;;;;;;5044552;28;20037;-75
2022/07/20 10:05:14;;;;;;;9.10;6.07;;;;;;;;;;5039613;28;20048;-75
2022/07/20 10:07:42;;;;;;;11.30;5.85;;;;;;;;;;5038703;28;20428;-75
2022/07/20 10:10:08;;;;;;;13.43;5.80;;;;;;;;;;5043449;28;20148;-75
2022/07/20 10:12:34;;;;;;;13.55;6.47;;;;;;;;;;5037541;28;20056;-75
2022/07/20 10:15:01;;;;;;;11.68;5.95;;;;;;;;;;5038816;28;20659;-75
2022/07/20 10:17:30;;;;;;;10.77;5.78;;;;;;;;;;5039243;28;20081;-75
2022/07/20 10:19:57;;;;;;;7.90;5.75;;;;;;;;;;5041747;28;20681;-75
2022/07/20 10:22:23;;;;;;;10.15;5.68;;;;;;;;;;5046078;28;20036;-75
2022/07/20 10:25:16;;;;;;;7.60;5.53;;;;;;;;;;5040864;28;20041;-75
2022/07/20 10:27:42;;;;;;;10.07;5.03;;;;;;;;;;5016510;28;20464;-75
2022/07/20 10:30:18;;;;;;;6.60;4.40;;;;;;;;;;5038498;28;20083;-75
2022/07/20 10:33:10;;;;;;;10.73;5.55;;;;;;;;;;5043233;28;20029;-75
2022/07/20 10:35:36;;;;;;;10.02;5.07;;;;;;;;;;5039295;28;20052;-75
2022/07/20 10:38:04;;;;;;;6.40;5.13;;;;;;;;;;5043567;28;20029;-75
2022/07/20 10:40:30;;;;;;;8.30;5.18;;;;;;;;;;5041516;28;20033;-75
2022/07/20 10:43:16;;;;;;;9.95;5.50;;;;;;;;;;5038559;28;20033;-75
2022/07/20 10:45:43;;;;;;;8.38;4.90;;;;;;;;;;5026168;28;20468;-75
2022/07/20 10:48:12;;;;;;;11.40;5.50;;;;;;;;;;5040178;28;20041;-75
2022/07/20 10:50:38;;;;;;;8.82;5.50;;;;;;;;;;5049106;28;20460;-75
2022/07/20 10:53:04;;;;;;;7.38;4.82;;;;;;;;;;5044094;28;20033;-75
2022/07/20 10:55:36;;;;;;;9.27;5.70;;;;;;;;;;5046136;28;20098;-75
2022/07/20 10:58:12;;;;;;;11.75;5.40;;;;;;;;;;5047767;28;20043;-75
2022/07/20 11:00:41;;;;;;;6.18;4.72;;;;;;;;;;5045025;28;20033;-75
2022/07/20 11:03:29;;;;;;;8.15;4.70;;;;;;;;;;5046132;28;20084;-75
2022/07/20 11:06:03;;;;;;;9.15;5.38;;;;;;;;;;5046514;28;20555;-75
2022/07/20 11:08:29;;;;;;;10.55;5.97;;;;;;;;;;5039873;28;20036;-75
2022/07/20 11:10:56;;;;;;;9.32;5.65;;;;;;;;;;5045820;28;20047;-75
2022/07/20 11:13:22;;;;;;;8.98;5.47;;;;;;;;;;5044222;28;20041;-75
2022/07/20 11:15:49;;;;;;;11.45;5.90;;;;;;;;;;5055184;28;20041;-75
2022/07/20 11:18:19;;;;;;;15.85;5.70;;;;;;;;;;5040980;28;20065;-75
2022/07/20 11:20:47;;;;;;;13.88;6.15;;;;;;;;;;5049271;28;20033;-75
2022/07/20 11:23:14;;;;;;;12.27;6.78;;;;;;;;;;5041199;28;20475;-75
2022/07/20 11:25:48;;;;;;;10.77;6.47;;;;;;;;;;5046500;28;20333;-75
2022/07/20 11:28:16;;;;;;;10.13;6.03;;;;;;;;;;5041185;28;20063;-75
2022/07/20 11:30:42;;;;;;;11.07;5.70;;;;;;;;;;5041347;28;20037;-75
2022/07/20 11:33:09;;;;;;;9.05;5.45;;;;;;;;;;5045960;28;20029;-75
2022/07/20 11:35:36;;;;;;;14.10;5.38;;;;;;;;;;5041052;28;20825;-75
2022/07/20 11:38:02;;;;;;;9.20;6.00;;;;;;;;;;5034633;28;20056;-75
2022/07/20 11:40:28;;;;;;;7.32;5.22;;;;;;;;;;5050767;28;20405;-75
2022/07/20 11:43:06;;;;;;;9.18;5.80;;;;;;;;;;5050136;28;20025;-75
2022/07/20 11:45:32;;;;;;;7.70;5.80;;;;;;;;;;5026998;28;20059;-75
2022/07/20 11:47:58;;;;;;;9.77;5.50;;;;;;;;;;5044967;28;20756;-75
2022/07/20 11:50:31;;;;;;;8.85;5.85;;;;;;;;;;5039183;28;20040;-75
2022/07/20 11:52:57;;;;;;;10.43;6.32;;;;;;;;;;5037595;28;20029;-75
2022/07/20 11:55:33;;;;;;;6.57;5.47;;;;;;;;;;5040186;28;20526;-75
2022/07/20 11:57:59;;;;;;;13.10;5.45;;;;;;;;;;5045187;28;20079;-75
2022/07/20 12:00:29;;;;;;;10.60;5.82;;;;;;;;;;5042213;28;20037;-75
2022/07/20 12:02:55;;;;;;;8.27;5.65;;;;;;;;;;5040585;28;20061;-75
2022/07/20 12:05:21;;;;;;;12.23;6.13;;;;;;;;;;5044455;28;20128;-75
2022/07/20 12:10:36;;;;;;;10.75;6.10;;;;;;;;;;5038071;28;20048;-75
2022/07/20 12:13:06;;;;;;;9.02;5.90;;;;;;;;;;5030095;28;20289;-75
2022/07/20 12:15:32;;;;;;;10.00;6.10;;;;;;;;;;5043562;28;20048;-75
2022/07/20 12:17:58;;;;;;;11.02;6.22;;;;;;;;;;5040115;28;20367;-75
2022/07/20 12:20:25;;;;;;;13.00;6.45;;;;;;;;;;5026945;28;20033;-75
2022/07/20 12:22:52;;;;;;;10.98;6.20;;;;;;;;;;5041048;28;20140;-75
2022/07/20 12:25:18;;;;;;;7.07;5.15;;;;;;;;;;5040430;28;20029;-75
2022/07/20 12:27:45;;;;;;;9.57;5.47;;;;;;;;;;5042512;28;20033;-75
2022/07/20 12:30:49;;;;;;;10.07;6.05;;;;;;;;;;5034001;28;20033;-75
2022/07/20 12:33:15;;;;;;;10.38;6.35;;;;;;;;;;4956716;28;20057;-75
2022/07/20 12:35:43;;;;;;;11.73;6.43;;;;;;;;;;4969325;28;20039;-75
2022/07/20 12:38:09;;;;;;;11.80;5.82;;;;;;;;;;5006245;28;20063;-75
2022/07/20 12:40:41;;;;;;;11.32;6.45;;;;;;;;;;5029981;28;20058;-75
2022/07/20 12:43:26;;;;;;;16.33;8.52;;;;;;;;;;5042146;28;20040;-75
2022/07/20 12:45:53;;;;;;;17.75;8.90;;;;;;;;;;5046054;28;20112;-75
2022/07/20 12:48:19;;;;;;;19.27;7.78;;;;;;;;;;5039315;28;20029;-75
2022/07/20 12:50:45;;;;;;;17.60;9.85;;;;;;;;;;5042429;28;20064;-75
2022/07/20 12:53:11;;;;;;;17.10;9.77;;;;;;;;;;5039242;28;20087;-75
2022/07/20 12:55:37;;;;;;;14.63;9.70;;;;;;;;;;5037689;28;20452;-75
2022/07/20 12:58:03;;;;;;;11.95;8.00;;;;;;;;;;5037869;28;20071;-75
2022/07/20 13:00:29;;;;;;;13.52;8.95;;;;;;;;;;5040465;28;20039;-75
2022/07/20 13:02:55;;;;;;;16.02;10.27;;;;;;;;;;5038374;28;20139;-75
2022/07/20 13:05:21;;;;;;;14.50;9.40;;;;;;;;;;5044292;28;20545;-75
2022/07/20 13:07:47;;;;;;;11.63;8.30;;;;;;;;;;5038774;28;20124;-75
2022/07/20 13:10:14;;;;;;;16.33;9.30;;;;;;;;;;5040994;28;20102;-75
2022/07/20 13:12:40;;;;;;;12.65;8.98;;;;;;;;;;5043300;28;20649;-75
2022/07/20 13:15:07;;;;;;;14.77;9.07;;;;;;;;;;5040842;28;20047;-75
2022/07/20 13:17:33;;;;;;;15.35;9.63;;;;;;;;;;5037849;28;20045;-75
2022/07/20 13:19:59;;;;;;;12.80;8.95;;;;;;;;;;5039983;28;20787;-75
2022/07/20 13:22:25;;;;;;;29.27;11.80;;;;;;;;;;5035230;28;20032;-75
2022/07/20 13:24:51;;;;;;;11.05;9.50;;;;;;;;;;5027148;28;20578;-75
2022/07/20 13:27:17;;;;;;;14.27;9.80;;;;;;;;;;5046926;28;20029;-75
2022/07/20 13:29:43;;;;;;;14.02;9.48;;;;;;;;;;5039265;28;20029;-75
2022/07/20 13:32:09;;;;;;;14.65;10.45;;;;;;;;;;5047848;28;20515;-75
2022/07/20 13:34:35;;;;;;;13.52;11.15;;;;;;;;;;5040917;28;20543;-75
2022/07/20 13:37:02;;;;;;;18.00;10.13;;;;;;;;;;5041678;28;20029;-75
2022/07/20 13:39:28;;;;;;;11.68;8.88;;;;;;;;;;5044035;28;20475;-75
2022/07/20 13:41:54;;;;;;;10.98;8.57;;;;;;;;;;5025179;28;20037;-75
2022/07/20 13:44:20;;;;;;;11.43;8.88;;;;;;;;;;5040844;28;20120;-75
2022/07/20 13:46:47;;;;;;;12.95;9.20;;;;;;;;;;5042713;28;20065;-75
2022/07/20 13:49:13;;;;;;;14.80;9.27;;;;;;;;;;5040293;28;20041;-75
2022/07/20 13:51:39;;;;;;;11.20;8.98;;;;;;;;;;5041844;28;20053;-75
2022/07/20 13:54:05;;;;;;;12.75;9.40;;;;;;;;;;5022646;28;20041;-75
2022/07/20 13:56:31;;;;;;;11.93;9.05;;;;;;;;;;5042092;28;20615;-75
2022/07/20 13:58:58;;;;;;;12.82;9.68;;;;;;;;;;5041045;28;20040;-75
2022/07/20 14:01:24;;;;;;;12.93;9.07;;;;;;;;;;5035114;28;20428;-75
2022/07/20 14:03:50;;;;;;;11.82;9.32;;;;;;;;;;5043438;28;20090;-75
2022/07/20 14:06:16;;;;;;;11.65;8.98;;;;;;;;;;5037022;28;20033;-76
2022/07/20 14:08:42;;;;;;;12.82;9.40;;;;;;;;;;5040220;28;20048;-75
2022/07/20 14:11:09;;;;;;;13.05;9.15;;;;;;;;;;5042606;28;20029;-75
2022/07/20 14:13:35;;;;;;;13.30;9.10;;;;;;;;;;5033835;28;20056;-75
2022/07/20 14:16:01;;;;;;;13.32;10.07;;;;;;;;;;5050439;28;20040;-75
2022/07/20 14:18:27;;;;;;;11.10;8.43;;;;;;;;;;5049566;28;20116;-75
2022/07/20 14:20:53;;;;;;;14.05;8.98;;;;;;;;;;5042312;28;20703;-75
2022/07/20 14:23:20;;;;;;;11.63;8.45;;;;;;;;;;5034831;28;20021;-75
2022/07/20 14:25:46;;;;;;;13.88;8.50;;;;;;;;;;5042158;28;20389;-75
2022/07/20 14:28:12;;;;;;;12.43;9.38;;;;;;;;;;5041526;28;20510;-75
2022/07/20 14:30:38;;;;;;;12.63;8.82;;;;;;;;;;5032173;28;20085;-75
2022/07/20 14:33:04;;;;;;;13.40;8.32;;;;;;;;;;5043090;28;20807;-75
2022/07/20 14:35:32;;;;;;;11.20;8.15;;;;;;;;;;5039678;28;20042;-75
2022/07/20 14:37:58;;;;;;;10.05;8.00;;;;;;;;;;5044373;28;20051;-75
2022/07/20 14:40:24;;;;;;;10.25;8.77;;;;;;;;;;5050126;28;20143;-75